Time;durP1;ratioP1;P1;durP2;ratioP2;P2;SDS_P1;SDS_P2;PMS_P1;PMS_P2;Temp;Humidity;BMP_temperature;BMP_pressure;BME280_temperature;BME280_humidity;BME280_pressure;Samples;Min_cycle;Max_cycle;Signal;HPM_P1;HPM_P2
2021/06/01 00:01:23;;;;;;;7.97;1.77;;;;;;;10.95;68.30;96012.97;5073661;28;20085;-55
2021/06/01 00:03:50;;;;;;;4.93;2.25;;;;;;;10.86;67.99;96002.94;5073670;28;20111;-56
2021/06/01 00:06:16;;;;;;;5.43;1.67;;;;;;;10.80;69.29;96005.84;5073776;28;20390;-54
2021/06/01 00:08:42;;;;;;;2.78;1.77;;;;;;;10.75;69.81;96013.94;5073668;28;20040;-56
2021/06/01 00:11:10;;;;;;;2.25;1.90;;;;;;;10.75;69.50;96011.31;5073634;28;20572;-53
2021/06/01 00:13:36;;;;;;;2.45;1.90;;;;;;;10.73;69.47;96002.69;5073489;28;20033;-57
2021/06/01 00:16:03;;;;;;;6.55;2.13;;;;;;;10.65;68.72;96004.84;5073587;28;20098;-53
2021/06/01 00:18:29;;;;;;;3.25;2.05;;;;;;;10.70;68.72;96008.06;5073460;28;20054;-55
2021/06/01 00:20:55;;;;;;;4.03;1.70;;;;;;;10.62;69.02;96008.41;5073447;28;20021;-57
2021/06/01 00:23:21;;;;;;;5.60;1.65;;;;;;;10.58;68.21;96002.50;5073427;28;20032;-55
2021/06/01 00:25:46;;;;;;;1.42;1.30;;;;;;;10.57;68.06;96007.81;5073528;28;20502;-54
2021/06/01 00:28:12;;;;;;;3.00;1.17;;;;;;;10.53;68.00;96008.88;5073287;28;20059;-56
2021/06/01 00:30:40;;;;;;;1.40;1.30;;;;;;;10.55;67.36;96004.41;5073411;28;20024;-55
2021/06/01 00:33:06;;;;;;;1.42;1.33;;;;;;;10.51;68.70;96002.84;5073318;28;20028;-56
2021/06/01 00:35:34;;;;;;;2.92;1.45;;;;;;;10.47;70.23;96000.38;5073380;28;20448;-56
2021/06/01 00:38:00;;;;;;;7.20;1.98;;;;;;;10.44;68.51;95997.88;5073126;28;20037;-57
2021/06/01 00:40:26;;;;;;;1.80;1.70;;;;;;;10.45;68.48;95999.59;5073167;28;20027;-57
2021/06/01 00:42:52;;;;;;;7.35;1.70;;;;;;;10.44;69.00;95990.03;5073211;28;20025;-55
2021/06/01 00:45:20;;;;;;;1.80;1.33;;;;;;;10.27;69.18;95995.19;5073333;28;20031;-58
2021/06/01 00:47:46;;;;;;;4.35;1.42;;;;;;;10.21;68.88;95989.31;5073237;28;20024;-51
2021/06/01 00:50:12;;;;;;;2.20;1.40;;;;;;;10.22;68.92;95987.53;5073214;28;20121;-53
2021/06/01 00:52:38;;;;;;;1.70;1.30;;;;;;;10.25;68.69;95984.78;5073057;28;20017;-56
2021/06/01 00:55:08;;;;;;;1.63;1.52;;;;;;;10.23;69.45;95989.22;5073033;28;20466;-57
2021/06/01 00:57:34;;;;;;;1.33;1.15;;;;;;;10.27;66.99;95987.34;5073000;28;20016;-54
2021/06/01 01:00:00;;;;;;;1.60;1.42;;;;;;;10.22;68.84;95983.19;5073036;28;20429;-55
2021/06/01 01:02:26;;;;;;;5.28;1.65;;;;;;;10.10;69.62;95983.72;5072927;28;20024;-56
2021/06/01 01:04:53;;;;;;;2.67;1.13;;;;;;;10.13;69.73;95993.19;5073017;28;20021;-56
2021/06/01 01:10:12;;;;;;;1.48;1.38;;;;;;;10.06;69.64;95990.84;5073290;28;20496;-53
2021/06/01 01:12:46;;;;;;;7.82;1.38;;;;;;;10.07;68.86;95987.34;5074158;28;20100;-54
2021/06/01 01:15:13;;;;;;;1.08;0.98;;;;;;;10.02;67.49;95980.63;5077099;28;20074;-54
2021/06/01 01:17:45;;;;;;;3.28;1.40;;;;;;;10.07;68.73;95984.72;5077019;28;20048;-55
2021/06/01 01:20:14;;;;;;;1.83;1.23;;;;;;;10.04;68.64;95987.47;5077030;28;20021;-51
2021/06/01 01:22:42;;;;;;;1.48;1.38;;;;;;;10.03;70.16;95988.38;5076973;28;20024;-53
2021/06/01 01:25:19;;;;;;;4.75;1.58;;;;;;;10.01;70.04;95984.13;5076897;28;20028;-56
2021/06/01 01:28:03;;;;;;;1.52;1.42;;;;;;;9.91;69.19;95984.56;5076784;28;20044;-55
2021/06/01 01:30:38;;;;;;;5.50;1.25;;;;;;;9.94;69.23;95979.16;5076756;28;20040;-58
2021/06/01 01:33:18;;;;;;;1.35;1.25;;;;;;;9.83;68.52;95973.59;5076697;28;20124;-53
2021/06/01 01:35:48;;;;;;;1.83;1.67;;;;;;;9.86;69.58;95979.53;5076758;28;20052;-52
2021/06/01 01:38:14;;;;;;;3.58;1.35;;;;;;;9.81;69.20;95976.25;5076374;28;20087;-57
2021/06/01 01:40:42;;;;;;;1.40;1.27;;;;;;;9.86;69.10;95968.22;5076466;28;20016;-56
2021/06/01 01:43:14;;;;;;;2.08;1.30;;;;;;;9.81;69.08;95963.19;5076462;28;20471;-55
2021/06/01 01:45:44;;;;;;;3.85;1.60;;;;;;;9.78;68.76;95963.34;5076529;28;20071;-55
2021/06/01 01:51:19;;;;;;;1.33;1.23;;;;;;;9.70;69.97;95957.63;5076653;28;20105;-54
2021/06/01 01:53:56;;;;;;;1.23;1.10;;;;;;;9.72;68.40;95959.22;5076244;28;20032;-57
2021/06/01 01:56:28;;;;;;;1.60;1.38;;;;;;;9.70;68.92;95953.22;5076204;28;20460;-51
2021/06/01 01:58:53;;;;;;;1.40;1.30;;;;;;;9.72;69.42;95956.63;5076256;28;20029;-56
2021/06/01 02:01:20;;;;;;;1.40;1.30;;;;;;;9.75;68.87;95953.00;5076369;28;20082;-53
2021/06/01 02:03:46;;;;;;;1.30;1.20;;;;;;;9.68;68.99;95947.22;5075977;28;20021;-54
2021/06/01 02:06:12;;;;;;;8.07;1.10;;;;;;;9.67;69.30;95953.38;5075971;28;20017;-58
2021/06/01 02:08:40;;;;;;;3.20;1.38;;;;;;;9.68;69.76;95952.47;5076039;28;20029;-58
2021/06/01 02:11:06;;;;;;;2.88;1.77;;;;;;;9.56;69.64;95953.84;5076024;28;20397;-55
2021/06/01 02:13:32;;;;;;;3.53;1.42;;;;;;;9.55;69.82;95949.53;5075784;28;20028;-52
2021/06/01 02:15:58;;;;;;;1.50;1.40;;;;;;;9.51;69.15;95954.97;5075839;28;20571;-53
2021/06/01 02:18:24;;;;;;;1.42;1.33;;;;;;;9.49;70.16;95960.25;5075835;28;20082;-53
2021/06/01 02:20:53;;;;;;;2.35;1.23;;;;;;;9.45;69.69;95946.47;5075910;28;20104;-56
2021/06/01 02:23:48;;;;;;;2.42;1.40;;;;;;;9.51;69.36;95939.28;5075203;28;20028;-56
2021/06/01 02:26:29;;;;;;;1.20;1.10;;;;;;;9.60;69.14;95947.56;5075597;28;20070;-56
2021/06/01 02:29:02;;;;;;;3.78;1.48;;;;;;;9.62;69.85;95947.50;5075744;28;20417;-54
2021/06/01 02:31:32;;;;;;;1.33;1.23;;;;;;;9.61;70.39;95941.41;5075715;28;20035;-54
2021/06/01 02:34:00;;;;;;;4.90;1.60;;;;;;;9.60;69.15;95941.47;5075682;28;20032;-54
2021/06/01 02:36:27;;;;;;;3.45;1.30;;;;;;;9.56;68.85;95940.78;5075301;28;20021;-59
2021/06/01 02:38:56;;;;;;;1.70;1.33;;;;;;;9.57;69.17;95936.41;5075550;28;20486;-57
2021/06/01 02:41:22;;;;;;;1.42;1.33;;;;;;;9.56;68.32;95948.63;5075482;28;20032;-56
2021/06/01 02:43:48;;;;;;;3.65;1.30;;;;;;;9.56;69.10;95943.41;5075322;28;20524;-58
2021/06/01 02:46:18;;;;;;;1.20;1.10;;;;;;;9.60;68.74;95941.47;5075454;28;20036;-58
2021/06/01 02:48:46;;;;;;;3.45;1.10;;;;;;;9.61;68.88;95944.03;5075335;28;20074;-53
2021/06/01 02:51:16;;;;;;;5.47;2.00;;;;;;;9.68;67.92;95941.16;5075274;28;20390;-53
2021/06/01 02:53:47;;;;;;;4.30;1.88;;;;;;;9.73;69.55;95947.84;5075126;28;20048;-58
2021/06/01 02:56:14;;;;;;;5.60;1.20;;;;;;;9.75;68.51;95944.34;5075210;28;20052;-57
2021/06/01 02:58:45;;;;;;;1.70;1.60;;;;;;;9.76;69.03;95944.28;5075057;28;20558;-55
2021/06/01 03:01:12;;;;;;;2.90;1.45;;;;;;;9.74;68.66;95951.34;5075093;28;20493;-52
2021/06/01 03:03:46;;;;;;;1.88;1.17;;;;;;;9.71;68.64;95952.31;5075007;28;20049;-54
2021/06/01 03:06:12;;;;;;;1.50;1.40;;;;;;;9.72;68.80;95959.22;5075097;28;20427;-55
2021/06/01 03:08:39;;;;;;;5.63;1.10;;;;;;;9.75;68.46;95949.56;5074865;28;20021;-55
2021/06/01 03:11:06;;;;;;;2.45;1.40;;;;;;;9.69;69.59;95946.31;5074974;28;20104;-56
2021/06/01 03:13:32;;;;;;;3.03;1.83;;;;;;;9.64;69.87;95944.81;5074820;28;20078;-58
2021/06/01 03:15:58;;;;;;;3.10;1.40;;;;;;;9.60;69.90;95949.31;5074718;28;20020;-54
2021/06/01 03:18:23;;;;;;;7.43;1.75;;;;;;;9.61;69.71;95957.09;5074587;28;20027;-56
2021/06/01 03:20:50;;;;;;;4.60;1.50;;;;;;;9.65;69.80;95954.34;5074673;28;20017;-56
2021/06/01 03:23:16;;;;;;;5.18;1.92;;;;;;;9.56;70.66;95953.84;5074595;28;20057;-53
2021/06/01 03:25:42;;;;;;;1.33;1.23;;;;;;;9.64;69.50;95953.50;5074604;28;20360;-50
2021/06/01 03:28:08;;;;;;;4.05;1.40;;;;;;;9.78;68.86;95954.66;5074504;28;20027;-50
2021/06/01 03:30:35;;;;;;;3.72;1.45;;;;;;;9.99;68.25;95961.53;5074486;28;20592;-57
2021/06/01 03:33:01;;;;;;;1.20;1.05;;;;;;;10.42;67.78;95957.03;5074382;28;20031;-57
2021/06/01 03:35:27;;;;;;;1.67;1.20;;;;;;;10.84;67.73;95962.94;5074019;28;20378;-52
2021/06/01 03:37:54;;;;;;;1.20;1.10;;;;;;;11.21;66.59;95969.00;5074013;28;20124;-53
2021/06/01 03:40:19;;;;;;;5.28;1.20;;;;;;;11.70;65.44;95967.41;5074241;28;20074;-54
2021/06/01 03:42:45;;;;;;;3.67;1.40;;;;;;;12.28;64.11;95969.69;5074163;28;20017;-54
2021/06/01 03:45:11;;;;;;;2.90;1.10;;;;;;;12.91;62.96;95961.88;5074168;28;20040;-51
2021/06/01 03:47:37;;;;;;;3.33;1.20;;;;;;;13.44;61.27;95958.88;5074155;28;20024;-56
2021/06/01 03:50:04;;;;;;;7.32;1.02;;;;;;;13.93;59.06;95958.72;5074048;28;20474;-56
2021/06/01 03:52:30;;;;;;;1.55;1.27;;;;;;;14.30;57.28;95963.47;5073830;28;20074;-59
2021/06/01 03:54:56;;;;;;;4.30;0.82;;;;;;;14.72;56.49;95960.88;5073945;28;20033;-53
2021/06/01 03:57:21;;;;;;;1.00;0.90;;;;;;;15.09;55.89;95960.28;5072746;28;20060;-59
2021/06/01 03:59:47;;;;;;;0.73;0.73;;;;;;;15.43;55.98;95965.09;5074033;28;20016;-59
2021/06/01 04:02:13;;;;;;;1.83;1.27;;;;;;;15.75;55.03;95970.84;5073795;28;20090;-59
2021/06/01 04:04:38;;;;;;;2.45;1.05;;;;;;;16.07;54.80;95966.97;5073830;28;20021;-53
2021/06/01 04:07:04;;;;;;;5.22;1.10;;;;;;;16.37;53.73;95968.41;5073730;28;20027;-54
2021/06/01 04:09:30;;;;;;;0.80;0.80;;;;;;;16.63;52.46;95971.00;5073644;28;20482;-57
2021/06/01 04:11:56;;;;;;;2.78;0.80;;;;;;;16.80;52.45;95967.13;5073761;28;20458;-52
2021/06/01 04:14:22;;;;;;;4.30;0.90;;;;;;;16.97;52.16;95966.84;5073680;28;20378;-58
2021/06/01 04:16:47;;;;;;;0.98;0.98;;;;;;;17.32;50.59;95968.75;5073525;28;20470;-56
2021/06/01 04:19:16;;;;;;;5.60;1.10;;;;;;;17.52;51.01;95967.22;5073667;28;20021;-58
2021/06/01 04:21:43;;;;;;;2.10;0.90;;;;;;;17.80;49.94;95965.16;5073702;28;20028;-54
2021/06/01 04:24:10;;;;;;;1.98;1.30;;;;;;;18.10;49.37;95959.41;5072226;28;20548;-58
2021/06/01 04:26:36;;;;;;;1.17;1.00;;;;;;;18.28;48.76;95962.44;5073474;28;20032;-55
2021/06/01 04:29:02;;;;;;;5.18;1.30;;;;;;;18.33;47.78;95967.38;5073427;28;20024;-57
2021/06/01 04:31:27;;;;;;;5.28;0.85;;;;;;;18.49;48.69;95967.88;5073289;28;20013;-55
2021/06/01 04:33:53;;;;;;;1.30;1.23;;;;;;;18.49;47.06;95967.88;5073423;28;20027;-60
2021/06/01 04:36:20;;;;;;;2.22;1.42;;;;;;;18.51;46.35;95960.63;5073143;28;20027;-59
2021/06/01 04:38:45;;;;;;;3.03;1.15;;;;;;;18.46;47.17;95962.81;5073341;28;20551;-59
2021/06/01 04:41:11;;;;;;;2.53;1.00;;;;;;;18.37;47.04;95956.44;5073319;28;20029;-57
2021/06/01 04:43:36;;;;;;;1.08;0.98;;;;;;;18.67;48.03;95960.22;5073194;28;20024;-54
2021/06/01 04:46:02;;;;;;;1.83;0.90;;;;;;;19.07;48.78;95957.97;5073322;28;20103;-54
2021/06/01 04:48:27;;;;;;;1.48;1.25;;;;;;;19.00;48.00;95957.66;5072475;28;20453;-57
2021/06/01 04:50:53;;;;;;;1.70;1.00;;;;;;;19.24;46.39;95966.38;5073168;28;20039;-58
2021/06/01 04:53:19;;;;;;;2.65;0.90;;;;;;;19.21;45.02;95958.69;5072995;28;20383;-53
2021/06/01 04:55:44;;;;;;;3.42;0.80;;;;;;;18.93;47.12;95964.38;5073190;28;20482;-57
2021/06/01 04:58:10;;;;;;;1.23;1.10;;;;;;;18.92;47.44;95960.91;5073120;28;20104;-59
2021/06/01 05:00:36;;;;;;;1.10;0.95;;;;;;;18.96;45.58;95960.66;5073012;28;20039;-56
2021/06/01 05:03:01;;;;;;;2.55;0.90;;;;;;;18.63;47.06;95961.44;5073084;28;20020;-59
2021/06/01 05:05:27;;;;;;;2.45;0.98;;;;;;;18.66;47.87;95955.91;5073063;28;20056;-58
2021/06/01 05:07:54;;;;;;;1.00;0.93;;;;;;;18.70;47.06;95959.16;5072914;28;20036;-57
2021/06/01 05:10:20;;;;;;;1.65;0.82;;;;;;;18.75;46.83;95964.09;5072870;28;20025;-58
2021/06/01 05:12:47;;;;;;;2.80;0.88;;;;;;;18.73;47.48;95960.72;5072953;28;20032;-53
2021/06/01 05:15:13;;;;;;;0.88;0.80;;;;;;;19.08;47.38;95962.34;5072962;28;20039;-56
2021/06/01 05:17:40;;;;;;;2.70;1.35;;;;;;;18.96;46.25;95966.78;5072984;28;20025;-53
2021/06/01 05:20:07;;;;;;;0.90;0.90;;;;;;;19.08;46.09;95959.69;5072815;28;20119;-57
2021/06/01 05:22:33;;;;;;;2.72;0.80;;;;;;;19.29;47.16;95962.38;5071650;28;20036;-54
2021/06/01 05:24:58;;;;;;;0.88;0.85;;;;;;;18.92;45.88;95960.06;5072847;28;20466;-51
2021/06/01 05:27:25;;;;;;;1.42;1.00;;;;;;;18.72;47.32;95959.88;5072890;28;20029;-54
2021/06/01 05:29:57;;;;;;;2.53;1.60;;;;;;;18.84;46.74;95957.22;5072667;28;20025;-56
2021/06/01 05:35:17;;;;;;;1.83;1.05;;;;;;;18.70;48.13;95967.13;5073587;28;20027;-56
2021/06/01 05:37:43;;;;;;;1.63;1.20;;;;;;;18.03;48.53;95961.69;5072840;28;20118;-59
2021/06/01 05:40:10;;;;;;;1.45;1.35;;;;;;;17.68;48.91;95958.16;5072807;28;20463;-55
2021/06/01 05:42:35;;;;;;;1.90;1.05;;;;;;;17.65;50.37;95956.59;5072559;28;20116;-61
2021/06/01 05:45:01;;;;;;;4.25;1.50;;;;;;;18.09;49.85;95955.91;5072574;28;20456;-60
2021/06/01 05:47:27;;;;;;;1.98;1.40;;;;;;;18.45;48.42;95958.47;5072565;28;20025;-53
2021/06/01 05:49:52;;;;;;;1.50;1.40;;;;;;;18.46;48.54;95962.81;5072577;28;20035;-57
2021/06/01 05:52:18;;;;;;;1.98;1.63;;;;;;;18.71;49.19;95955.53;5072587;28;20028;-55
2021/06/01 05:54:44;;;;;;;3.08;1.70;;;;;;;18.81;45.64;95953.84;5072425;28;20021;-58
2021/06/01 05:57:10;;;;;;;4.63;2.00;;;;;;;18.92;46.43;95963.56;5072414;28;20052;-56
2021/06/01 05:59:36;;;;;;;1.85;1.65;;;;;;;19.25;47.90;95960.97;5075179;28;20032;-57
2021/06/01 06:02:02;;;;;;;3.08;1.90;;;;;;;19.52;46.53;95964.09;5076299;28;20090;-55
2021/06/01 06:04:27;;;;;;;1.42;1.33;;;;;;;19.65;44.83;95955.94;5076146;28;20036;-59
2021/06/01 06:06:53;;;;;;;1.67;1.58;;;;;;;19.76;45.50;95958.53;5076064;28;20036;-56
2021/06/01 06:09:19;;;;;;;1.40;1.30;;;;;;;19.98;44.88;95954.03;5076146;28;20053;-56
2021/06/01 06:11:44;;;;;;;2.40;1.25;;;;;;;19.97;44.91;95954.16;5075973;28;20462;-56
2021/06/01 06:14:10;;;;;;;1.30;1.20;;;;;;;20.39;46.40;95955.94;5075848;28;20028;-56
2021/06/01 06:16:46;;;;;;;1.65;1.20;;;;;;;20.37;43.81;95949.91;5075962;28;20490;-55
2021/06/01 06:19:12;;;;;;;1.33;1.20;;;;;;;20.35;43.32;95954.53;5075977;28;20407;-57
2021/06/01 06:21:37;;;;;;;3.30;1.23;;;;;;;20.55;44.66;95942.13;5075833;28;20082;-54
2021/06/01 06:24:05;;;;;;;1.50;1.27;;;;;;;20.71;43.90;95949.63;5075817;28;20020;-53
2021/06/01 06:26:30;;;;;;;0.93;0.90;;;;;;;20.77;45.66;95941.06;5075765;28;20475;-57
2021/06/01 06:28:56;;;;;;;0.93;0.93;;;;;;;20.75;43.53;95935.06;5075673;28;20033;-54
2021/06/01 06:31:22;;;;;;;1.02;1.02;;;;;;;20.61;43.73;95946.06;5075719;28;20052;-53
2021/06/01 06:33:47;;;;;;;0.90;0.90;;;;;;;20.61;42.83;95949.56;5075490;28;20055;-58
2021/06/01 06:36:13;;;;;;;0.80;0.80;;;;;;;20.64;42.41;95941.31;5075308;28;20025;-53
2021/06/01 06:38:39;;;;;;;1.10;0.90;;;;;;;20.73;42.50;95944.13;5075616;28;20027;-56
2021/06/01 06:43:36;;;;;;;5.35;1.05;;;;;;;20.74;41.52;95943.19;5075397;28;20439;-54
2021/06/01 06:46:06;;;;;;;3.38;1.08;;;;;;;20.51;41.78;95949.56;5075355;28;20024;-59
2021/06/01 06:48:32;;;;;;;1.13;1.00;;;;;;;20.60;43.84;95958.53;5075380;28;20028;-58
2021/06/01 06:51:01;;;;;;;2.85;0.77;;;;;;;20.75;41.41;95943.03;5075103;28;20279;-51
2021/06/01 06:53:27;;;;;;;0.70;0.70;;;;;;;20.76;42.22;95947.38;5075161;28;20112;-54
2021/06/01 06:55:52;;;;;;;2.58;0.90;;;;;;;20.72;42.03;95951.28;5075205;28;20059;-58
2021/06/01 06:58:18;;;;;;;0.95;0.90;;;;;;;21.06;41.63;95944.78;5075171;28;20024;-56
2021/06/01 07:00:44;;;;;;;1.83;0.93;;;;;;;21.30;41.39;95959.50;5075080;28;20036;-55
2021/06/01 07:03:10;;;;;;;3.58;1.00;;;;;;;21.26;42.01;95958.94;5075014;28;20439;-57
2021/06/01 07:05:35;;;;;;;0.80;0.80;;;;;;;21.14;40.40;95952.91;5075056;28;20025;-55
2021/06/01 07:08:01;;;;;;;1.13;1.05;;;;;;;20.95;41.09;95951.91;5074853;28;20489;-58
2021/06/01 07:10:27;;;;;;;1.98;1.27;;;;;;;21.04;41.94;95942.25;5074154;28;20071;-57
2021/06/01 07:12:54;;;;;;;1.00;0.90;;;;;;;21.40;41.71;95949.69;5074830;28;20044;-53
2021/06/01 07:15:22;;;;;;;0.90;0.90;;;;;;;21.76;41.15;95946.44;5074751;28;20029;-60
2021/06/01 07:17:54;;;;;;;4.03;1.13;;;;;;;21.95;40.50;95950.88;5074711;28;20024;-55
2021/06/01 07:20:21;;;;;;;2.40;0.85;;;;;;;21.91;40.31;95954.00;5074739;28;20060;-56
2021/06/01 07:22:46;;;;;;;1.20;0.95;;;;;;;21.96;41.30;95951.75;5074597;28;20027;-55
2021/06/01 07:25:12;;;;;;;1.08;0.98;;;;;;;22.24;40.57;95949.13;5074557;28;20032;-60
2021/06/01 07:27:39;;;;;;;7.60;0.82;;;;;;;22.53;40.31;95949.97;5074634;28;20029;-55
2021/06/01 07:30:08;;;;;;;0.80;0.80;;;;;;;22.41;37.72;95949.34;5074434;28;20027;-51
2021/06/01 07:32:34;;;;;;;5.25;1.05;;;;;;;22.29;39.67;95941.53;5074497;28;20121;-57
2021/06/01 07:35:01;;;;;;;2.78;0.80;;;;;;;22.16;38.78;95949.88;5074429;28;20473;-55
2021/06/01 07:37:27;;;;;;;1.83;0.88;;;;;;;22.00;39.80;95939.81;5074225;28;20076;-60
2021/06/01 07:39:53;;;;;;;0.88;0.88;;;;;;;22.21;39.48;95936.09;5074425;28;20101;-60
2021/06/01 07:42:19;;;;;;;3.30;0.90;;;;;;;22.53;39.07;95947.31;5074258;28;20103;-59
2021/06/01 07:44:45;;;;;;;1.00;0.80;;;;;;;22.14;38.82;95940.31;5074170;28;20021;-59
2021/06/01 07:47:11;;;;;;;1.65;1.13;;;;;;;21.49;41.22;95953.31;5074093;28;20039;-60
2021/06/01 07:49:37;;;;;;;2.17;1.10;;;;;;;21.15;41.95;95948.44;5074197;28;20466;-54
2021/06/01 07:52:03;;;;;;;2.00;1.10;;;;;;;21.35;42.42;95957.25;5074034;28;20127;-52
2021/06/01 07:54:32;;;;;;;1.13;0.93;;;;;;;21.23;39.79;95958.38;5074083;28;20032;-62
2021/06/01 07:56:58;;;;;;;1.25;1.15;;;;;;;21.04;40.09;95955.56;5074080;28;20114;-53
2021/06/01 07:59:24;;;;;;;1.05;0.88;;;;;;;21.17;40.36;95954.44;5073983;28;20412;-55
2021/06/01 08:01:51;;;;;;;2.05;1.00;;;;;;;21.51;41.11;95950.53;5073813;28;20112;-59
2021/06/01 08:04:17;;;;;;;2.22;1.20;;;;;;;21.39;39.14;95963.97;5073837;28;20024;-57
2021/06/01 08:06:43;;;;;;;2.70;1.13;;;;;;;21.24;40.17;95957.38;5073848;28;20107;-58
2021/06/01 08:09:09;;;;;;;1.52;1.10;;;;;;;20.99;41.69;95963.13;5073741;28;20467;-58
2021/06/01 08:11:36;;;;;;;1.42;1.30;;;;;;;20.69;40.35;95956.88;5073613;28;20028;-59
2021/06/01 08:14:02;;;;;;;3.10;1.17;;;;;;;21.06;39.54;95966.03;5073662;28;20024;-55
2021/06/01 08:16:30;;;;;;;2.55;0.90;;;;;;;21.34;40.60;95952.91;5073704;28;20024;-52
2021/06/01 08:19:22;;;;;;;1.85;1.38;;;;;;;21.47;38.90;95949.97;5073523;28;20079;-57
2021/06/01 08:24:09;;;;;;;5.97;1.13;;;;;;;21.19;40.12;95963.97;5073446;28;20032;-58
2021/06/01 08:26:36;;;;;;;2.50;1.30;;;;;;;20.78;44.70;95977.31;5073423;28;20478;-56
2021/06/01 08:29:06;;;;;;;1.58;1.10;;;;;;;20.16;46.05;95978.19;5073530;28;20517;-61
2021/06/01 08:31:32;;;;;;;;;;;;;;;19.53;48.56;95982.53;5073967;28;20432;-57
2021/06/01 08:33:58;;;;;;;2.67;1.45;;;;;;;19.26;50.87;95989.13;5073249;28;19912;-56
2021/06/01 08:36:25;;;;;;;2.42;1.75;;;;;;;19.04;53.29;95990.03;5072977;28;20067;-59
2021/06/01 08:38:51;;;;;;;3.47;1.40;;;;;;;18.85;54.92;95986.22;5073418;28;20028;-57
2021/06/01 08:41:17;;;;;;;11.00;2.42;;;;;;;18.14;56.12;95997.94;5073315;28;20493;-59
2021/06/01 08:43:43;;;;;;;5.95;2.00;;;;;;;17.60;59.63;96006.31;5073270;28;20729;-55
2021/06/01 08:46:10;;;;;;;2.08;1.40;;;;;;;17.27;58.51;96005.22;5073305;28;20486;-53
2021/06/01 08:48:37;;;;;;;1.85;1.40;;;;;;;17.08;59.04;95997.81;5073325;28;20081;-55
2021/06/01 08:51:03;;;;;;;4.22;1.95;;;;;;;16.85;61.15;96006.41;5073252;28;20050;-58
2021/06/01 08:53:29;;;;;;;1.42;1.33;;;;;;;16.59;60.59;96005.66;5073100;28;20033;-60
2021/06/01 08:55:55;;;;;;;3.05;1.15;;;;;;;16.57;61.96;96000.47;5073036;28;20025;-55
2021/06/01 08:58:22;;;;;;;1.40;1.30;;;;;;;16.74;61.29;95996.63;5072970;28;20074;-58
2021/06/01 09:00:49;;;;;;;1.42;1.33;;;;;;;16.78;63.02;95994.63;5071929;28;20032;-60
2021/06/01 09:03:26;;;;;;;3.15;1.40;;;;;;;16.85;63.60;95990.56;5073024;28;20028;-54
2021/06/01 09:22:30;;;;;;;1.38;1.27;;;;;;;17.97;58.87;95992.09;5072973;28;20024;-58
2021/06/01 09:25:06;;;;;;;1.50;1.30;;;;;;;18.14;59.90;95985.53;5072904;28;20474;-54
2021/06/01 09:27:51;;;;;;;1.02;1.02;;;;;;;18.19;60.06;95978.06;5072778;28;20028;-57
2021/06/01 09:30:45;;;;;;;1.17;1.08;;;;;;;18.24;60.49;95982.19;5072807;28;20021;-57
2021/06/01 09:33:17;;;;;;;2.22;1.20;;;;;;;18.21;59.90;95982.44;5073203;28;20120;-59
2021/06/01 09:36:00;;;;;;;1.45;1.10;;;;;;;18.22;58.80;95984.97;5076722;28;20097;-58
2021/06/01 09:38:30;;;;;;;1.27;1.17;;;;;;;18.34;58.94;95985.78;5076524;28;20078;-58
2021/06/01 09:41:04;;;;;;;1.20;1.10;;;;;;;18.39;58.93;95990.75;5076668;28;20029;-60
2021/06/01 09:43:30;;;;;;;1.15;1.05;;;;;;;18.26;58.15;95981.09;5076546;28;20493;-59
2021/06/01 09:45:56;;;;;;;1.10;1.00;;;;;;;18.33;58.48;95981.44;5076430;28;20012;-56
2021/06/01 09:48:24;;;;;;;0.95;0.95;;;;;;;18.42;58.61;95977.22;5076449;28;20410;-58
2021/06/01 09:51:00;;;;;;;3.33;1.00;;;;;;;18.43;58.15;95971.81;5076472;28;20029;-61
2021/06/01 09:53:29;;;;;;;1.30;1.20;;;;;;;18.54;59.58;95973.63;5076368;28;20041;-53
2021/06/01 09:55:56;;;;;;;1.15;1.00;;;;;;;18.65;60.64;95967.47;5076256;28;20024;-59
2021/06/01 09:58:27;;;;;;;2.92;1.27;;;;;;;18.68;59.55;95966.38;5076305;28;20020;-56
2021/06/01 10:00:54;;;;;;;1.30;1.20;;;;;;;18.52;56.14;95972.91;5076210;28;20359;-60
2021/06/01 10:03:35;;;;;;;1.45;1.08;;;;;;;18.56;57.79;95958.47;5076286;28;20421;-59
2021/06/01 10:06:01;;;;;;;3.45;1.13;;;;;;;18.61;54.49;95959.91;5076227;28;20028;-56
2021/06/01 10:08:30;;;;;;;3.45;1.15;;;;;;;18.57;54.98;95954.00;5076044;28;20055;-55
2021/06/01 10:11:00;;;;;;;1.38;1.13;;;;;;;18.65;56.49;95959.53;5076075;28;20119;-57
2021/06/01 10:13:28;;;;;;;3.00;1.10;;;;;;;18.71;55.39;95957.34;5075889;28;20031;-52
2021/06/01 10:15:59;;;;;;;1.77;1.30;;;;;;;18.81;57.11;95955.63;5075967;28;20111;-60
2021/06/01 10:18:31;;;;;;;1.40;1.30;;;;;;;18.95;57.37;95965.13;5075887;28;20025;-60
2021/06/01 10:20:59;;;;;;;1.73;1.02;;;;;;;19.07;51.72;95955.31;5075891;28;20119;-57
2021/06/01 10:23:49;;;;;;;1.00;1.00;;;;;;;19.10;48.97;95957.75;5075781;28;20021;-56
2021/06/01 10:26:13;;;;;;;1.35;1.25;;;;;;;19.16;50.21;95951.97;5075367;28;20048;-51
2021/06/01 10:28:46;;;;;;;1.40;1.30;;;;;;;19.22;52.41;95949.75;5075774;28;20028;-57
2021/06/01 10:31:14;;;;;;;2.80;1.20;;;;;;;18.86;53.63;95947.31;5075729;28;20111;-55
2021/06/01 10:34:01;;;;;;;1.40;1.30;;;;;;;18.91;54.02;95938.03;5075520;28;20112;-53
2021/06/01 10:53:27;;;;;;;1.48;1.38;;;;;;;18.57;56.95;95943.41;4993879;28;20137;-52
2021/06/01 10:55:59;;;;;;;2.15;1.40;;;;;;;18.83;59.32;95940.47;5061103;28;20089;-57
2021/06/01 10:58:34;;;;;;;1.73;1.63;;;;;;;19.04;57.83;95932.56;5075148;28;20071;-56
2021/06/01 11:04:24;;;;;;;2.35;1.40;;;;;;;19.48;52.91;95936.16;5075280;28;20390;-58
2021/06/01 11:07:00;;;;;;;1.67;1.40;;;;;;;19.62;52.83;95932.34;5075131;28;20060;-56
2021/06/01 11:09:32;;;;;;;1.88;1.70;;;;;;;19.91;50.78;95937.81;5075028;28;20103;-53
2021/06/01 11:12:25;;;;;;;1.40;1.30;;;;;;;20.08;53.07;95933.72;5074899;28;20024;-56
2021/06/01 11:14:57;;;;;;;1.50;1.40;;;;;;;20.38;50.66;95944.47;5074867;28;20029;-57
2021/06/01 11:17:38;;;;;;;1.50;1.40;;;;;;;20.53;44.72;95929.00;5074873;28;20029;-54
2021/06/01 11:20:08;;;;;;;1.30;1.20;;;;;;;20.64;44.47;95920.06;5074726;28;20027;-56
2021/06/01 11:23:00;;;;;;;2.10;1.10;;;;;;;20.70;43.37;95927.50;5074802;28;20111;-56
2021/06/01 11:33:36;;;;;;;2.17;1.48;;;;;;;20.52;44.78;95913.19;5074677;28;20071;-54
2021/06/01 11:36:04;;;;;;;0.82;0.77;;;;;;;20.30;42.50;95921.25;5074349;28;20474;-52
2021/06/01 11:38:47;;;;;;;1.40;1.10;;;;;;;20.08;39.81;95911.66;5074322;28;20075;-58
2021/06/01 11:43:57;;;;;;;2.10;1.10;;;;;;;19.69;43.22;95921.06;5074775;28;20078;-56
2021/06/01 11:46:28;;;;;;;12.82;1.20;;;;;;;19.05;45.54;95918.34;5074339;28;20408;-55
2021/06/01 11:51:48;;;;;;;1.45;1.15;;;;;;;18.75;45.62;95927.84;5052918;28;20047;-57
2021/06/01 11:54:15;;;;;;;1.20;1.10;;;;;;;18.55;47.02;95932.09;5073977;28;20478;-56
2021/06/01 12:18:38;;;;;;;0.90;0.90;;;;;;;17.90;48.77;95928.25;5073994;28;20028;-56
2021/06/01 12:21:05;;;;;;;3.65;1.05;;;;;;;17.89;48.19;95926.56;5072426;28;20103;-57
2021/06/01 12:23:44;;;;;;;1.08;0.98;;;;;;;17.87;48.45;95933.78;5073508;28;20024;-53
2021/06/01 12:26:28;;;;;;;0.90;0.90;;;;;;;17.90;49.42;95932.69;5073485;28;20028;-53
2021/06/01 12:31:47;;;;;;;0.75;0.75;;;;;;;17.78;47.30;95934.47;5073487;28;20067;-54
2021/06/01 12:34:18;;;;;;;2.35;0.90;;;;;;;17.70;48.37;95934.25;5073211;28;20390;-57
2021/06/01 12:43:18;;;;;;;0.60;0.60;;;;;;;17.45;50.44;95936.13;5073466;28;20047;-55
2021/06/01 13:05:47;;;;;;;0.98;0.65;;;;;;;17.28;50.63;95956.72;5073501;28;20501;-57
2021/06/01 13:21:48;;;;;;;0.57;0.57;;;;;;;17.24;51.68;95976.38;5072977;28;20031;-53
2021/06/01 13:36:22;;;;;;;0.40;0.40;;;;;;;16.53;50.78;95983.19;5011193;28;20030;-56
2021/06/01 13:46:43;;;;;;;0.80;0.55;;;;;;;16.74;51.12;95991.34;5072734;28;20047;-55
2021/06/01 13:51:50;;;;;;;0.43;0.30;;;;;;;16.88;49.48;95974.50;5072699;28;20024;-58
2021/06/01 13:59:44;;;;;;;0.75;0.50;;;;;;;17.35;50.35;95979.09;5072686;28;20037;-58
2021/06/01 14:37:47;;;;;;;0.88;0.70;;;;;;;16.71;50.68;96022.41;5075619;28;20517;-56
2021/06/01 15:32:25;;;;;;;3.05;1.60;;;;;;;14.90;56.73;96041.31;5074147;28;20074;-56
2021/06/01 17:04:52;;;;;;;1.38;0.63;;;;;;;13.77;60.71;96088.41;5073248;28;20414;-56
2021/06/01 17:13:05;;;;;;;0.98;0.60;;;;;;;13.60;62.10;96094.63;5073221;28;20477;-55
2021/06/01 17:15:31;;;;;;;1.35;0.63;;;;;;;13.46;62.25;96101.50;5073023;28;20029;-52
2021/06/01 17:18:09;;;;;;;2.85;0.52;;;;;;;13.39;62.79;96108.88;5072849;28;20433;-56
2021/06/01 17:36:52;;;;;;;0.60;0.60;;;;;;;12.92;64.50;96128.13;5072770;28;20114;-55